sensor_id;sensor_type;location;lat;lon;timestamp;P1;durP1;ratioP1;P2;durP2;ratioP2
58978;SDS011;44763;50.464;30.612;2024-03-22T00:00:00;32.80;;;25.40;;
58978;SDS011;44763;50.464;30.612;2024-03-22T00:02:00;37.70;;;26.30;;
58978;SDS011;44763;50.464;30.612;2024-03-22T00:04:01;35.00;;;26.10;;
58978;SDS011;44763;50.464;30.612;2024-03-22T00:06:02;35.80;;;25.50;;
58978;SDS011;44763;50.464;30.612;2024-03-22T00:08:03;39.70;;;28.00;;
58978;SDS011;44763;50.464;30.612;2024-03-22T00:10:05;39.10;;;25.30;;
58978;SDS011;44763;50.464;30.612;2024-03-22T00:12:06;31.60;;;24.40;;
58978;SDS011;44763;50.464;30.612;2024-03-22T00:14:07;41.10;;;26.80;;
58978;SDS011;44763;50.464;30.612;2024-03-22T00:16:09;39.30;;;25.60;;
58978;SDS011;44763;50.464;30.612;2024-03-22T00:18:09;32.80;;;26.10;;
58978;SDS011;44763;50.464;30.612;2024-03-22T00:20:10;34.70;;;25.40;;
58978;SDS011;44763;50.464;30.612;2024-03-22T00:22:12;36.80;;;25.10;;
58978;SDS011;44763;50.464;30.612;2024-03-22T00:24:12;36.60;;;26.70;;
58978;SDS011;44763;50.464;30.612;2024-03-22T00:26:13;37.50;;;25.40;;
58978;SDS011;44763;50.464;30.612;2024-03-22T00:28:14;33.00;;;26.00;;
58978;SDS011;44763;50.464;30.612;2024-03-22T00:30:15;34.20;;;26.60;;
58978;SDS011;44763;50.464;30.612;2024-03-22T00:32:16;40.60;;;27.90;;
58978;SDS011;44763;50.464;30.612;2024-03-22T00:34:16;38.00;;;28.20;;
58978;SDS011;44763;50.464;30.612;2024-03-22T00:36:17;35.50;;;26.80;;
58978;SDS011;44763;50.464;30.612;2024-03-22T00:38:18;34.40;;;27.40;;
58978;SDS011;44763;50.464;30.612;2024-03-22T00:40:18;33.90;;;26.30;;
58978;SDS011;44763;50.464;30.612;2024-03-22T00:42:21;34.40;;;26.50;;
58978;SDS011;44763;50.464;30.612;2024-03-22T00:44:21;38.30;;;27.80;;
58978;SDS011;44763;50.464;30.612;2024-03-22T00:46:22;39.70;;;29.10;;
58978;SDS011;44763;50.464;30.612;2024-03-22T00:48:23;35.90;;;28.70;;
58978;SDS011;44763;50.464;30.612;2024-03-22T00:50:24;36.20;;;26.70;;
58978;SDS011;44763;50.464;30.612;2024-03-22T00:52:25;38.50;;;28.10;;
58978;SDS011;44763;50.464;30.612;2024-03-22T00:54:26;38.40;;;28.90;;
58978;SDS011;44763;50.464;30.612;2024-03-22T00:56:27;37.70;;;27.80;;
58978;SDS011;44763;50.464;30.612;2024-03-22T00:58:28;35.60;;;26.30;;
58978;SDS011;44763;50.464;30.612;2024-03-22T01:00:29;36.10;;;27.50;;
58978;SDS011;44763;50.464;30.612;2024-03-22T01:02:30;39.70;;;28.20;;
58978;SDS011;44763;50.464;30.612;2024-03-22T01:04:31;39.80;;;27.50;;
58978;SDS011;44763;50.464;30.612;2024-03-22T01:06:31;35.90;;;27.90;;
58978;SDS011;44763;50.464;30.612;2024-03-22T01:08:32;39.90;;;28.90;;
58978;SDS011;44763;50.464;30.612;2024-03-22T01:10:33;40.40;;;28.20;;
58978;SDS011;44763;50.464;30.612;2024-03-22T01:12:34;34.40;;;25.90;;
58978;SDS011;44763;50.464;30.612;2024-03-22T01:14:35;36.10;;;27.00;;
58978;SDS011;44763;50.464;30.612;2024-03-22T01:16:37;38.70;;;28.00;;
58978;SDS011;44763;50.464;30.612;2024-03-22T01:18:38;42.50;;;28.50;;
58978;SDS011;44763;50.464;30.612;2024-03-22T01:20:39;38.60;;;27.30;;
58978;SDS011;44763;50.464;30.612;2024-03-22T01:22:39;35.40;;;27.20;;
58978;SDS011;44763;50.464;30.612;2024-03-22T01:24:40;35.00;;;26.50;;
58978;SDS011;44763;50.464;30.612;2024-03-22T01:26:41;45.80;;;27.00;;
58978;SDS011;44763;50.464;30.612;2024-03-22T01:28:42;33.50;;;26.40;;
58978;SDS011;44763;50.464;30.612;2024-03-22T01:30:43;35.20;;;26.80;;
58978;SDS011;44763;50.464;30.612;2024-03-22T01:32:44;42.70;;;28.60;;
58978;SDS011;44763;50.464;30.612;2024-03-22T01:34:45;35.30;;;27.40;;
58978;SDS011;44763;50.464;30.612;2024-03-22T01:36:45;43.70;;;29.60;;
58978;SDS011;44763;50.464;30.612;2024-03-22T01:38:46;34.40;;;26.80;;
58978;SDS011;44763;50.464;30.612;2024-03-22T01:40:47;34.80;;;28.40;;
58978;SDS011;44763;50.464;30.612;2024-03-22T01:42:47;36.70;;;27.20;;
58978;SDS011;44763;50.464;30.612;2024-03-22T01:44:48;37.40;;;27.20;;
58978;SDS011;44763;50.464;30.612;2024-03-22T01:46:50;42.10;;;28.80;;
58978;SDS011;44763;50.464;30.612;2024-03-22T01:48:51;37.80;;;27.00;;
58978;SDS011;44763;50.464;30.612;2024-03-22T01:50:53;40.60;;;27.10;;
58978;SDS011;44763;50.464;30.612;2024-03-22T01:52:54;35.20;;;28.80;;
58978;SDS011;44763;50.464;30.612;2024-03-22T01:54:54;38.10;;;29.20;;
58978;SDS011;44763;50.464;30.612;2024-03-22T01:56:56;38.80;;;29.90;;
58978;SDS011;44763;50.464;30.612;2024-03-22T01:58:57;40.90;;;29.80;;
58978;SDS011;44763;50.464;30.612;2024-03-22T02:00:57;37.20;;;28.10;;
58978;SDS011;44763;50.464;30.612;2024-03-22T02:02:59;36.50;;;29.70;;
58978;SDS011;44763;50.464;30.612;2024-03-22T02:05:10;38.20;;;28.50;;
58978;SDS011;44763;50.464;30.612;2024-03-22T02:07:12;41.00;;;31.30;;
58978;SDS011;44763;50.464;30.612;2024-03-22T02:09:12;35.40;;;29.40;;
58978;SDS011;44763;50.464;30.612;2024-03-22T02:11:15;38.30;;;28.80;;
58978;SDS011;44763;50.464;30.612;2024-03-22T02:13:16;39.80;;;29.10;;
58978;SDS011;44763;50.464;30.612;2024-03-22T02:15:16;38.50;;;29.00;;
58978;SDS011;44763;50.464;30.612;2024-03-22T02:17:17;42.30;;;29.90;;
58978;SDS011;44763;50.464;30.612;2024-03-22T02:19:18;41.50;;;30.50;;
58978;SDS011;44763;50.464;30.612;2024-03-22T02:21:18;39.40;;;30.70;;
58978;SDS011;44763;50.464;30.612;2024-03-22T02:23:22;40.20;;;29.10;;
58978;SDS011;44763;50.464;30.612;2024-03-22T02:25:33;42.30;;;29.30;;
58978;SDS011;44763;50.464;30.612;2024-03-22T02:27:34;41.30;;;30.60;;
58978;SDS011;44763;50.464;30.612;2024-03-22T02:29:35;40.10;;;31.10;;
58978;SDS011;44763;50.464;30.612;2024-03-22T02:31:36;46.60;;;30.80;;
58978;SDS011;44763;50.464;30.612;2024-03-22T02:33:36;37.50;;;29.60;;
58978;SDS011;44763;50.464;30.612;2024-03-22T02:35:37;46.30;;;30.70;;
58978;SDS011;44763;50.464;30.612;2024-03-22T02:37:38;39.40;;;30.90;;
58978;SDS011;44763;50.464;30.612;2024-03-22T02:39:38;40.30;;;29.50;;
58978;SDS011;44763;50.464;30.612;2024-03-22T02:41:39;40.20;;;31.30;;
58978;SDS011;44763;50.464;30.612;2024-03-22T02:43:40;41.90;;;31.20;;
58978;SDS011;44763;50.464;30.612;2024-03-22T02:45:40;39.80;;;30.60;;
58978;SDS011;44763;50.464;30.612;2024-03-22T02:47:41;44.50;;;32.40;;
58978;SDS011;44763;50.464;30.612;2024-03-22T02:49:42;43.50;;;30.40;;
58978;SDS011;44763;50.464;30.612;2024-03-22T02:51:42;38.90;;;31.20;;
58978;SDS011;44763;50.464;30.612;2024-03-22T02:53:43;43.70;;;31.60;;
58978;SDS011;44763;50.464;30.612;2024-03-22T02:55:44;45.00;;;30.50;;
58978;SDS011;44763;50.464;30.612;2024-03-22T02:57:44;43.00;;;31.00;;
58978;SDS011;44763;50.464;30.612;2024-03-22T02:59:45;38.50;;;30.80;;
58978;SDS011;44763;50.464;30.612;2024-03-22T03:01:46;44.70;;;30.80;;
58978;SDS011;44763;50.464;30.612;2024-03-22T03:03:47;41.90;;;31.30;;
58978;SDS011;44763;50.464;30.612;2024-03-22T03:05:47;42.40;;;30.20;;
58978;SDS011;44763;50.464;30.612;2024-03-22T03:07:48;40.70;;;29.20;;
58978;SDS011;44763;50.464;30.612;2024-03-22T03:09:50;41.40;;;29.40;;
58978;SDS011;44763;50.464;30.612;2024-03-22T03:11:51;38.90;;;29.20;;
58978;SDS011;44763;50.464;30.612;2024-03-22T03:13:52;40.70;;;30.50;;
58978;SDS011;44763;50.464;30.612;2024-03-22T03:15:52;44.70;;;30.70;;
58978;SDS011;44763;50.464;30.612;2024-03-22T03:17:53;39.20;;;30.90;;
58978;SDS011;44763;50.464;30.612;2024-03-22T03:19:54;43.50;;;29.70;;
58978;SDS011;44763;50.464;30.612;2024-03-22T03:21:55;45.20;;;32.70;;
58978;SDS011;44763;50.464;30.612;2024-03-22T03:23:55;39.40;;;31.20;;
58978;SDS011;44763;50.464;30.612;2024-03-22T03:25:56;41.70;;;31.10;;
58978;SDS011;44763;50.464;30.612;2024-03-22T03:27:57;43.50;;;32.50;;
58978;SDS011;44763;50.464;30.612;2024-03-22T03:29:57;47.00;;;33.50;;
58978;SDS011;44763;50.464;30.612;2024-03-22T03:31:58;40.20;;;30.10;;
58978;SDS011;44763;50.464;30.612;2024-03-22T03:33:59;42.90;;;31.90;;
58978;SDS011;44763;50.464;30.612;2024-03-22T03:35:59;41.80;;;32.10;;
58978;SDS011;44763;50.464;30.612;2024-03-22T03:38:00;42.20;;;31.60;;
58978;SDS011;44763;50.464;30.612;2024-03-22T03:40:01;41.10;;;30.90;;
58978;SDS011;44763;50.464;30.612;2024-03-22T03:42:01;42.80;;;30.00;;
58978;SDS011;44763;50.464;30.612;2024-03-22T03:44:02;42.50;;;31.80;;
58978;SDS011;44763;50.464;30.612;2024-03-22T03:46:03;42.10;;;31.00;;
58978;SDS011;44763;50.464;30.612;2024-03-22T03:48:04;42.70;;;30.70;;
58978;SDS011;44763;50.464;30.612;2024-03-22T03:50:05;46.20;;;32.90;;
58978;SDS011;44763;50.464;30.612;2024-03-22T03:52:06;43.40;;;32.30;;
58978;SDS011;44763;50.464;30.612;2024-03-22T03:54:06;52.90;;;33.10;;
58978;SDS011;44763;50.464;30.612;2024-03-22T03:56:07;45.30;;;31.00;;
58978;SDS011;44763;50.464;30.612;2024-03-22T03:58:07;43.30;;;32.70;;
58978;SDS011;44763;50.464;30.612;2024-03-22T04:00:08;49.00;;;33.30;;
58978;SDS011;44763;50.464;30.612;2024-03-22T04:02:09;49.10;;;32.90;;
58978;SDS011;44763;50.464;30.612;2024-03-22T04:04:10;48.30;;;31.80;;
58978;SDS011;44763;50.464;30.612;2024-03-22T04:06:11;41.60;;;32.40;;
58978;SDS011;44763;50.464;30.612;2024-03-22T04:08:12;42.70;;;30.30;;
58978;SDS011;44763;50.464;30.612;2024-03-22T04:10:13;47.20;;;30.80;;
58978;SDS011;44763;50.464;30.612;2024-03-22T04:12:14;42.00;;;30.80;;
58978;SDS011;44763;50.464;30.612;2024-03-22T04:14:15;42.20;;;31.30;;
58978;SDS011;44763;50.464;30.612;2024-03-22T04:16:16;43.20;;;31.60;;
58978;SDS011;44763;50.464;30.612;2024-03-22T04:18:16;46.60;;;33.20;;
58978;SDS011;44763;50.464;30.612;2024-03-22T04:20:17;45.90;;;32.00;;
58978;SDS011;44763;50.464;30.612;2024-03-22T04:22:18;44.70;;;33.10;;
58978;SDS011;44763;50.464;30.612;2024-03-22T04:24:19;47.10;;;32.30;;
58978;SDS011;44763;50.464;30.612;2024-03-22T04:26:19;43.50;;;31.20;;
58978;SDS011;44763;50.464;30.612;2024-03-22T04:28:21;43.40;;;31.60;;
58978;SDS011;44763;50.464;30.612;2024-03-22T04:30:22;44.10;;;31.10;;
58978;SDS011;44763;50.464;30.612;2024-03-22T04:32:23;40.10;;;28.80;;
58978;SDS011;44763;50.464;30.612;2024-03-22T04:34:23;44.00;;;30.20;;
58978;SDS011;44763;50.464;30.612;2024-03-22T04:36:24;39.00;;;29.20;;
58978;SDS011;44763;50.464;30.612;2024-03-22T04:38:25;45.40;;;32.00;;
58978;SDS011;44763;50.464;30.612;2024-03-22T04:40:26;43.50;;;32.20;;
58978;SDS011;44763;50.464;30.612;2024-03-22T04:42:27;41.10;;;29.90;;
58978;SDS011;44763;50.464;30.612;2024-03-22T04:44:28;39.50;;;30.50;;
58978;SDS011;44763;50.464;30.612;2024-03-22T04:46:29;40.20;;;29.60;;
58978;SDS011;44763;50.464;30.612;2024-03-22T04:48:29;40.50;;;30.50;;
58978;SDS011;44763;50.464;30.612;2024-03-22T04:50:31;45.50;;;29.00;;
58978;SDS011;44763;50.464;30.612;2024-03-22T04:52:32;36.20;;;28.80;;
58978;SDS011;44763;50.464;30.612;2024-03-22T04:54:32;35.90;;;28.40;;
58978;SDS011;44763;50.464;30.612;2024-03-22T04:56:33;34.20;;;27.50;;
58978;SDS011;44763;50.464;30.612;2024-03-22T04:58:34;39.20;;;29.40;;
58978;SDS011;44763;50.464;30.612;2024-03-22T05:00:35;35.30;;;30.30;;
58978;SDS011;44763;50.464;30.612;2024-03-22T05:02:36;42.00;;;29.50;;
58978;SDS011;44763;50.464;30.612;2024-03-22T05:04:36;38.30;;;30.30;;
58978;SDS011;44763;50.464;30.612;2024-03-22T05:06:37;39.90;;;30.00;;
58978;SDS011;44763;50.464;30.612;2024-03-22T05:08:38;36.50;;;30.70;;
58978;SDS011;44763;50.464;30.612;2024-03-22T05:10:39;34.60;;;28.10;;
58978;SDS011;44763;50.464;30.612;2024-03-22T05:12:39;34.40;;;28.60;;
58978;SDS011;44763;50.464;30.612;2024-03-22T05:14:40;34.60;;;27.80;;
58978;SDS011;44763;50.464;30.612;2024-03-22T05:16:41;37.40;;;28.90;;
58978;SDS011;44763;50.464;30.612;2024-03-22T05:18:42;37.20;;;29.90;;
58978;SDS011;44763;50.464;30.612;2024-03-22T05:20:44;34.20;;;26.30;;
58978;SDS011;44763;50.464;30.612;2024-03-22T05:22:44;36.00;;;27.80;;
58978;SDS011;44763;50.464;30.612;2024-03-22T05:24:45;35.60;;;28.80;;
58978;SDS011;44763;50.464;30.612;2024-03-22T05:26:46;35.20;;;29.00;;
58978;SDS011;44763;50.464;30.612;2024-03-22T05:29:59;38.20;;;28.90;;
58978;SDS011;44763;50.464;30.612;2024-03-22T05:32:00;37.10;;;30.00;;
58978;SDS011;44763;50.464;30.612;2024-03-22T05:34:01;39.10;;;31.10;;
58978;SDS011;44763;50.464;30.612;2024-03-22T05:36:02;44.40;;;30.70;;
58978;SDS011;44763;50.464;30.612;2024-03-22T05:38:03;32.50;;;28.50;;
58978;SDS011;44763;50.464;30.612;2024-03-22T05:40:04;37.10;;;28.00;;
58978;SDS011;44763;50.464;30.612;2024-03-22T05:42:06;36.70;;;30.20;;
58978;SDS011;44763;50.464;30.612;2024-03-22T05:44:07;43.90;;;31.10;;
58978;SDS011;44763;50.464;30.612;2024-03-22T05:46:08;35.20;;;28.20;;
58978;SDS011;44763;50.464;30.612;2024-03-22T05:48:09;36.20;;;31.10;;
58978;SDS011;44763;50.464;30.612;2024-03-22T05:50:09;36.20;;;32.20;;
58978;SDS011;44763;50.464;30.612;2024-03-22T05:52:10;43.20;;;35.30;;
58978;SDS011;44763;50.464;30.612;2024-03-22T05:54:12;45.50;;;37.70;;
58978;SDS011;44763;50.464;30.612;2024-03-22T05:56:13;46.70;;;39.20;;
58978;SDS011;44763;50.464;30.612;2024-03-22T05:58:14;47.00;;;39.00;;
58978;SDS011;44763;50.464;30.612;2024-03-22T06:00:15;42.80;;;38.10;;
58978;SDS011;44763;50.464;30.612;2024-03-22T06:02:16;43.90;;;39.10;;
58978;SDS011;44763;50.464;30.612;2024-03-22T06:04:16;46.70;;;37.50;;
58978;SDS011;44763;50.464;30.612;2024-03-22T06:06:17;49.50;;;38.10;;
58978;SDS011;44763;50.464;30.612;2024-03-22T06:08:18;44.90;;;37.80;;
58978;SDS011;44763;50.464;30.612;2024-03-22T06:10:20;45.30;;;37.90;;
58978;SDS011;44763;50.464;30.612;2024-03-22T06:12:22;45.60;;;39.90;;
58978;SDS011;44763;50.464;30.612;2024-03-22T06:14:23;44.40;;;39.40;;
58978;SDS011;44763;50.464;30.612;2024-03-22T06:16:24;45.70;;;40.40;;
58978;SDS011;44763;50.464;30.612;2024-03-22T06:18:24;43.90;;;38.80;;
58978;SDS011;44763;50.464;30.612;2024-03-22T06:20:25;44.10;;;38.90;;
58978;SDS011;44763;50.464;30.612;2024-03-22T06:22:26;47.20;;;39.10;;
58978;SDS011;44763;50.464;30.612;2024-03-22T06:24:27;44.50;;;38.20;;
58978;SDS011;44763;50.464;30.612;2024-03-22T06:26:27;49.70;;;39.00;;
58978;SDS011;44763;50.464;30.612;2024-03-22T06:28:28;40.00;;;35.70;;
58978;SDS011;44763;50.464;30.612;2024-03-22T06:30:29;41.80;;;37.30;;
58978;SDS011;44763;50.464;30.612;2024-03-22T06:32:30;43.50;;;36.60;;
58978;SDS011;44763;50.464;30.612;2024-03-22T06:34:31;39.00;;;33.80;;
58978;SDS011;44763;50.464;30.612;2024-03-22T06:36:31;38.50;;;33.50;;
58978;SDS011;44763;50.464;30.612;2024-03-22T06:38:35;37.20;;;32.50;;
58978;SDS011;44763;50.464;30.612;2024-03-22T06:40:36;34.40;;;30.80;;
58978;SDS011;44763;50.464;30.612;2024-03-22T06:42:36;33.10;;;29.60;;
58978;SDS011;44763;50.464;30.612;2024-03-22T06:44:37;31.10;;;26.10;;
58978;SDS011;44763;50.464;30.612;2024-03-22T06:46:39;29.90;;;25.50;;
58978;SDS011;44763;50.464;30.612;2024-03-22T06:48:40;29.50;;;23.70;;
58978;SDS011;44763;50.464;30.612;2024-03-22T06:50:41;27.20;;;24.40;;
58978;SDS011;44763;50.464;30.612;2024-03-22T06:52:42;31.30;;;25.00;;
58978;SDS011;44763;50.464;30.612;2024-03-22T06:54:43;31.80;;;26.90;;
58978;SDS011;44763;50.464;30.612;2024-03-22T06:56:44;37.50;;;27.20;;
58978;SDS011;44763;50.464;30.612;2024-03-22T06:58:44;35.10;;;31.40;;
58978;SDS011;44763;50.464;30.612;2024-03-22T07:00:45;38.20;;;32.20;;
58978;SDS011;44763;50.464;30.612;2024-03-22T07:02:46;40.00;;;33.30;;
58978;SDS011;44763;50.464;30.612;2024-03-22T07:04:46;41.20;;;34.60;;
58978;SDS011;44763;50.464;30.612;2024-03-22T07:06:47;46.80;;;34.10;;
58978;SDS011;44763;50.464;30.612;2024-03-22T07:08:48;37.20;;;32.70;;
58978;SDS011;44763;50.464;30.612;2024-03-22T07:10:49;41.90;;;33.90;;
58978;SDS011;44763;50.464;30.612;2024-03-22T07:12:51;38.90;;;32.70;;
58978;SDS011;44763;50.464;30.612;2024-03-22T07:14:52;35.50;;;31.80;;
58978;SDS011;44763;50.464;30.612;2024-03-22T07:16:52;36.10;;;31.90;;
58978;SDS011;44763;50.464;30.612;2024-03-22T07:18:56;36.00;;;31.00;;
58978;SDS011;44763;50.464;30.612;2024-03-22T07:20:57;40.30;;;32.50;;
58978;SDS011;44763;50.464;30.612;2024-03-22T07:23:01;35.30;;;30.40;;
58978;SDS011;44763;50.464;30.612;2024-03-22T07:25:02;31.90;;;28.50;;
58978;SDS011;44763;50.464;30.612;2024-03-22T07:27:03;35.30;;;30.30;;
58978;SDS011;44763;50.464;30.612;2024-03-22T07:29:04;34.50;;;29.30;;
58978;SDS011;44763;50.464;30.612;2024-03-22T07:31:05;35.90;;;29.70;;
58978;SDS011;44763;50.464;30.612;2024-03-22T07:33:05;39.20;;;30.30;;
58978;SDS011;44763;50.464;30.612;2024-03-22T07:35:06;34.60;;;26.90;;
58978;SDS011;44763;50.464;30.612;2024-03-22T07:37:07;37.40;;;27.20;;
58978;SDS011;44763;50.464;30.612;2024-03-22T07:39:08;32.90;;;26.90;;
58978;SDS011;44763;50.464;30.612;2024-03-22T07:41:10;31.60;;;26.80;;
58978;SDS011;44763;50.464;30.612;2024-03-22T07:43:11;35.00;;;28.70;;
58978;SDS011;44763;50.464;30.612;2024-03-22T07:45:13;30.90;;;25.10;;
58978;SDS011;44763;50.464;30.612;2024-03-22T07:47:14;33.20;;;25.00;;
58978;SDS011;44763;50.464;30.612;2024-03-22T07:49:15;35.90;;;24.30;;
58978;SDS011;44763;50.464;30.612;2024-03-22T07:51:15;29.50;;;21.10;;
58978;SDS011;44763;50.464;30.612;2024-03-22T07:53:16;22.90;;;19.50;;
58978;SDS011;44763;50.464;30.612;2024-03-22T07:55:17;24.60;;;20.30;;
58978;SDS011;44763;50.464;30.612;2024-03-22T07:57:18;22.80;;;19.40;;
58978;SDS011;44763;50.464;30.612;2024-03-22T07:59:18;23.80;;;20.00;;
58978;SDS011;44763;50.464;30.612;2024-03-22T08:01:19;20.10;;;14.60;;
58978;SDS011;44763;50.464;30.612;2024-03-22T08:03:20;14.50;;;12.60;;
58978;SDS011;44763;50.464;30.612;2024-03-22T08:05:21;16.10;;;13.90;;
58978;SDS011;44763;50.464;30.612;2024-03-22T08:07:22;14.30;;;12.80;;
58978;SDS011;44763;50.464;30.612;2024-03-22T08:09:23;16.50;;;13.90;;
58978;SDS011;44763;50.464;30.612;2024-03-22T08:11:23;16.50;;;11.20;;
58978;SDS011;44763;50.464;30.612;2024-03-22T08:13:24;17.90;;;11.90;;
58978;SDS011;44763;50.464;30.612;2024-03-22T08:15:25;18.70;;;12.80;;
58978;SDS011;44763;50.464;30.612;2024-03-22T08:17:27;14.60;;;13.20;;
58978;SDS011;44763;50.464;30.612;2024-03-22T08:19:28;21.70;;;14.20;;
58978;SDS011;44763;50.464;30.612;2024-03-22T08:21:29;16.70;;;13.60;;
58978;SDS011;44763;50.464;30.612;2024-03-22T08:23:30;16.40;;;14.60;;
58978;SDS011;44763;50.464;30.612;2024-03-22T08:25:30;21.80;;;15.20;;
58978;SDS011;44763;50.464;30.612;2024-03-22T08:27:32;15.70;;;13.90;;
58978;SDS011;44763;50.464;30.612;2024-03-22T08:29:32;16.80;;;12.90;;
58978;SDS011;44763;50.464;30.612;2024-03-22T08:31:33;18.80;;;12.10;;
58978;SDS011;44763;50.464;30.612;2024-03-22T08:33:33;16.60;;;12.50;;
58978;SDS011;44763;50.464;30.612;2024-03-22T08:35:34;13.30;;;10.30;;
58978;SDS011;44763;50.464;30.612;2024-03-22T08:37:35;10.70;;;9.60;;
58978;SDS011;44763;50.464;30.612;2024-03-22T08:39:36;11.50;;;9.80;;
58978;SDS011;44763;50.464;30.612;2024-03-22T08:41:37;8.90;;;7.50;;
58978;SDS011;44763;50.464;30.612;2024-03-22T08:43:38;10.20;;;5.30;;
58978;SDS011;44763;50.464;30.612;2024-03-22T08:45:39;9.10;;;7.40;;
58978;SDS011;44763;50.464;30.612;2024-03-22T08:47:39;10.30;;;8.90;;
58978;SDS011;44763;50.464;30.612;2024-03-22T08:49:40;11.10;;;8.00;;
58978;SDS011;44763;50.464;30.612;2024-03-22T08:51:43;12.50;;;11.00;;
58978;SDS011;44763;50.464;30.612;2024-03-22T08:53:46;15.40;;;11.00;;
58978;SDS011;44763;50.464;30.612;2024-03-22T08:55:47;13.60;;;10.50;;
58978;SDS011;44763;50.464;30.612;2024-03-22T08:57:48;11.40;;;9.10;;
58978;SDS011;44763;50.464;30.612;2024-03-22T08:59:49;11.30;;;9.20;;
58978;SDS011;44763;50.464;30.612;2024-03-22T09:01:49;13.10;;;10.00;;
58978;SDS011;44763;50.464;30.612;2024-03-22T09:03:51;9.20;;;7.60;;
58978;SDS011;44763;50.464;30.612;2024-03-22T09:05:52;10.50;;;5.70;;
58978;SDS011;44763;50.464;30.612;2024-03-22T09:07:54;30.20;;;11.90;;
58978;SDS011;44763;50.464;30.612;2024-03-22T09:09:56;17.30;;;7.90;;
58978;SDS011;44763;50.464;30.612;2024-03-22T09:11:57;12.00;;;7.20;;
58978;SDS011;44763;50.464;30.612;2024-03-22T09:13:57;8.60;;;6.30;;
58978;SDS011;44763;50.464;30.612;2024-03-22T09:15:58;10.00;;;6.30;;
58978;SDS011;44763;50.464;30.612;2024-03-22T09:17:59;8.60;;;6.90;;
58978;SDS011;44763;50.464;30.612;2024-03-22T09:20:00;12.00;;;8.70;;
58978;SDS011;44763;50.464;30.612;2024-03-22T09:22:01;10.20;;;9.10;;
58978;SDS011;44763;50.464;30.612;2024-03-22T09:24:03;9.60;;;8.60;;
58978;SDS011;44763;50.464;30.612;2024-03-22T09:26:05;14.70;;;9.70;;
58978;SDS011;44763;50.464;30.612;2024-03-22T09:28:06;13.80;;;10.50;;
58978;SDS011;44763;50.464;30.612;2024-03-22T09:30:07;15.30;;;10.50;;
58978;SDS011;44763;50.464;30.612;2024-03-22T09:32:08;15.30;;;10.70;;
58978;SDS011;44763;50.464;30.612;2024-03-22T09:34:09;16.20;;;10.10;;
58978;SDS011;44763;50.464;30.612;2024-03-22T09:36:09;12.50;;;10.20;;
58978;SDS011;44763;50.464;30.612;2024-03-22T09:38:10;15.40;;;9.30;;
58978;SDS011;44763;50.464;30.612;2024-03-22T09:40:11;12.70;;;8.80;;
58978;SDS011;44763;50.464;30.612;2024-03-22T09:42:13;13.30;;;9.50;;
58978;SDS011;44763;50.464;30.612;2024-03-22T09:46:19;17.30;;;9.40;;
58978;SDS011;44763;50.464;30.612;2024-03-22T09:48:23;18.60;;;9.90;;
58978;SDS011;44763;50.464;30.612;2024-03-22T09:50:25;18.10;;;10.40;;
58978;SDS011;44763;50.464;30.612;2024-03-22T09:52:27;10.00;;;8.90;;
58978;SDS011;44763;50.464;30.612;2024-03-22T09:54:28;8.00;;;5.50;;
58978;SDS011;44763;50.464;30.612;2024-03-22T09:56:30;8.50;;;5.90;;
58978;SDS011;44763;50.464;30.612;2024-03-22T09:58:31;8.30;;;6.00;;
58978;SDS011;44763;50.464;30.612;2024-03-22T10:00:33;7.90;;;6.70;;
58978;SDS011;44763;50.464;30.612;2024-03-22T10:02:33;7.70;;;6.20;;
58978;SDS011;44763;50.464;30.612;2024-03-22T10:04:35;7.80;;;5.80;;
58978;SDS011;44763;50.464;30.612;2024-03-22T10:06:36;7.70;;;5.70;;
58978;SDS011;44763;50.464;30.612;2024-03-22T10:08:38;7.70;;;5.20;;
58978;SDS011;44763;50.464;30.612;2024-03-22T10:10:38;7.60;;;6.80;;
58978;SDS011;44763;50.464;30.612;2024-03-22T10:12:39;8.90;;;7.80;;
58978;SDS011;44763;50.464;30.612;2024-03-22T10:14:42;9.60;;;8.20;;
58978;SDS011;44763;50.464;30.612;2024-03-22T10:16:44;12.60;;;8.80;;
58978;SDS011;44763;50.464;30.612;2024-03-22T10:18:45;11.80;;;10.60;;
58978;SDS011;44763;50.464;30.612;2024-03-22T10:20:58;10.90;;;8.50;;
58978;SDS011;44763;50.464;30.612;2024-03-22T10:23:02;8.80;;;7.70;;
58978;SDS011;44763;50.464;30.612;2024-03-22T10:25:04;7.20;;;5.90;;
58978;SDS011;44763;50.464;30.612;2024-03-22T10:27:06;8.00;;;7.20;;
58978;SDS011;44763;50.464;30.612;2024-03-22T10:29:10;7.60;;;6.30;;
58978;SDS011;44763;50.464;30.612;2024-03-22T10:31:13;6.80;;;4.70;;
58978;SDS011;44763;50.464;30.612;2024-03-22T10:33:14;9.50;;;4.80;;
58978;SDS011;44763;50.464;30.612;2024-03-22T10:35:17;5.90;;;5.20;;
58978;SDS011;44763;50.464;30.612;2024-03-22T10:37:18;11.60;;;5.80;;
58978;SDS011;44763;50.464;30.612;2024-03-22T10:39:19;9.90;;;7.20;;
58978;SDS011;44763;50.464;30.612;2024-03-22T10:41:20;12.10;;;7.30;;
58978;SDS011;44763;50.464;30.612;2024-03-22T10:43:21;10.20;;;8.30;;
58978;SDS011;44763;50.464;30.612;2024-03-22T10:45:22;7.90;;;7.10;;
58978;SDS011;44763;50.464;30.612;2024-03-22T10:47:27;11.70;;;9.30;;
58978;SDS011;44763;50.464;30.612;2024-03-22T10:49:30;15.00;;;7.40;;
58978;SDS011;44763;50.464;30.612;2024-03-22T10:51:35;10.50;;;6.40;;
58978;SDS011;44763;50.464;30.612;2024-03-22T10:53:36;6.80;;;5.40;;
58978;SDS011;44763;50.464;30.612;2024-03-22T10:55:40;11.20;;;7.30;;
58978;SDS011;44763;50.464;30.612;2024-03-22T10:57:44;10.40;;;7.80;;
58978;SDS011;44763;50.464;30.612;2024-03-22T10:59:46;11.80;;;8.00;;
58978;SDS011;44763;50.464;30.612;2024-03-22T11:01:48;13.80;;;9.20;;
58978;SDS011;44763;50.464;30.612;2024-03-22T11:03:49;10.90;;;9.20;;
58978;SDS011;44763;50.464;30.612;2024-03-22T11:05:53;10.70;;;9.40;;
58978;SDS011;44763;50.464;30.612;2024-03-22T11:07:59;11.70;;;8.70;;
58978;SDS011;44763;50.464;30.612;2024-03-22T11:10:01;12.10;;;8.70;;
58978;SDS011;44763;50.464;30.612;2024-03-22T11:12:15;13.60;;;8.70;;
58978;SDS011;44763;50.464;30.612;2024-03-22T11:14:15;10.60;;;8.90;;
58978;SDS011;44763;50.464;30.612;2024-03-22T11:16:16;11.80;;;8.90;;
58978;SDS011;44763;50.464;30.612;2024-03-22T11:18:17;12.70;;;11.00;;
58978;SDS011;44763;50.464;30.612;2024-03-22T11:20:18;18.80;;;12.00;;
58978;SDS011;44763;50.464;30.612;2024-03-22T11:22:19;16.10;;;11.20;;
58978;SDS011;44763;50.464;30.612;2024-03-22T11:24:20;17.00;;;11.60;;
58978;SDS011;44763;50.464;30.612;2024-03-22T11:26:21;17.70;;;12.60;;
58978;SDS011;44763;50.464;30.612;2024-03-22T11:28:21;14.40;;;11.60;;
58978;SDS011;44763;50.464;30.612;2024-03-22T11:30:23;17.00;;;11.30;;
58978;SDS011;44763;50.464;30.612;2024-03-22T11:32:25;12.70;;;11.20;;
58978;SDS011;44763;50.464;30.612;2024-03-22T11:34:28;17.20;;;10.80;;
58978;SDS011;44763;50.464;30.612;2024-03-22T11:36:30;11.80;;;10.50;;
58978;SDS011;44763;50.464;30.612;2024-03-22T11:38:31;11.50;;;9.60;;
58978;SDS011;44763;50.464;30.612;2024-03-22T11:40:32;12.70;;;9.50;;
58978;SDS011;44763;50.464;30.612;2024-03-22T11:42:34;14.10;;;8.90;;
58978;SDS011;44763;50.464;30.612;2024-03-22T11:44:36;13.80;;;9.10;;